Time;durP1;ratioP1;P1;durP2;ratioP2;P2;SDS_P1;SDS_P2;PMS_P1;PMS_P2;Temp;Humidity;BMP_temperature;BMP_pressure;BME280_temperature;BME280_humidity;BME280_pressure;Samples;Min_cycle;Max_cycle;Signal;HPM_P1;HPM_P2
2021/09/04 00:00:24;;;;;;;6.20;4.57;;;;;;;12.04;91.83;96355.03;5243382;56;20125;-77
2021/09/04 00:05:28;;;;;;;5.13;4.35;;;;;;;12.04;91.98;96350.28;5244145;56;20173;-78
2021/09/04 00:10:30;;;;;;;5.00;4.50;;;;;;;11.85;92.26;96351.59;5244298;56;20130;-78
2021/09/04 00:15:33;;;;;;;7.47;5.57;;;;;;;11.87;92.29;96351.16;5244403;56;20144;-78
2021/09/04 00:20:35;;;;;;;6.22;4.82;;;;;;;11.80;92.03;96343.19;5244501;56;20131;-78
2021/09/04 00:25:38;;;;;;;5.88;5.13;;;;;;;11.68;92.18;96344.16;5244339;56;20125;-77
2021/09/04 00:30:40;;;;;;;10.55;5.45;;;;;;;11.71;92.10;96337.69;5244299;56;20134;-77
2021/09/04 00:35:42;;;;;;;8.38;5.30;;;;;;;11.69;91.94;96337.41;5245435;56;20173;-78
2021/09/04 00:40:45;;;;;;;6.25;5.13;;;;;;;11.71;92.17;96332.94;5244459;56;20595;-78
2021/09/04 00:45:47;;;;;;;7.05;4.45;;;;;;;11.63;91.94;96336.47;5244684;56;20117;-78
2021/09/04 00:50:50;;;;;;;5.78;5.03;;;;;;;11.55;92.33;96336.06;5249769;56;20209;-78
2021/09/04 00:55:52;;;;;;;6.90;5.00;;;;;;;11.57;92.53;96335.56;5253693;56;20116;-79
2021/09/04 01:00:55;;;;;;;7.35;5.22;;;;;;;11.52;92.09;96332.22;5245258;56;20139;-78
2021/09/04 01:05:58;;;;;;;6.60;5.15;;;;;;;11.54;92.38;96343.59;5244412;56;20283;-78
2021/09/04 01:11:00;;;;;;;6.20;4.78;;;;;;;11.65;92.10;96334.00;5244892;56;20146;-79
2021/09/04 01:16:03;;;;;;;6.95;5.18;;;;;;;11.51;92.35;96343.75;5246291;56;20125;-79
2021/09/04 01:21:08;;;;;;;6.22;4.68;;;;;;;11.44;91.35;96328.25;5248171;56;20178;-79
2021/09/04 01:26:10;;;;;;;5.95;4.70;;;;;;;11.30;92.21;96328.94;5261428;56;20124;-79
2021/09/04 01:31:13;;;;;;;5.53;4.40;;;;;;;11.31;92.37;96329.69;5247029;56;20594;-79
2021/09/04 01:36:31;;;;;;;5.85;4.53;;;;;;;11.26;92.01;96327.56;5244142;56;20251;-79
2021/09/04 01:41:34;;;;;;;6.40;4.97;;;;;;;11.22;92.21;96327.72;5244072;56;20129;-79
2021/09/04 01:46:37;;;;;;;8.50;4.82;;;;;;;11.19;91.82;96334.19;5243534;56;20218;-79
2021/09/04 01:51:40;;;;;;;6.90;4.45;;;;;;;11.24;91.34;96319.72;5243224;56;20230;-79
2021/09/04 01:56:42;;;;;;;4.95;4.20;;;;;;;11.12;92.24;96323.47;5242997;56;20112;-79
2021/09/04 02:01:44;;;;;;;4.57;4.13;;;;;;;11.03;91.74;96314.41;5244218;56;20125;-79
2021/09/04 02:06:47;;;;;;;4.28;3.88;;;;;;;10.97;91.87;96305.97;5245706;56;20227;-80
2021/09/04 02:11:49;;;;;;;7.93;4.00;;;;;;;10.96;91.83;96317.50;5244262;56;20134;-78
2021/09/04 02:16:52;;;;;;;4.65;4.05;;;;;;;11.07;91.93;96326.84;5244335;56;20122;-79
2021/09/04 02:21:54;;;;;;;3.88;3.45;;;;;;;10.96;91.39;96328.56;5243891;56;20644;-79
2021/09/04 02:26:57;;;;;;;4.35;3.70;;;;;;;10.82;91.98;96316.94;5246105;56;20641;-80
2021/09/04 02:32:00;;;;;;;4.15;3.75;;;;;;;10.74;91.99;96304.63;5247124;56;20126;-79
2021/09/04 02:37:03;;;;;;;4.28;3.63;;;;;;;10.72;92.39;96296.06;5246731;56;20657;-79
2021/09/04 02:42:05;;;;;;;4.93;3.85;;;;;;;10.80;93.05;96285.44;5246524;56;20131;-79
2021/09/04 02:47:08;;;;;;;2.92;2.60;;;;;;;10.83;92.40;96295.59;5246683;56;20121;-79
2021/09/04 02:52:10;;;;;;;4.20;3.78;;;;;;;10.83;92.04;96296.34;5246694;56;20236;-79
2021/09/04 02:57:12;;;;;;;4.53;3.58;;;;;;;10.71;92.79;96285.47;5247124;56;20121;-79
2021/09/04 03:02:15;;;;;;;4.55;4.00;;;;;;;10.64;92.37;96289.31;5247274;56;20135;-78
2021/09/04 03:07:17;;;;;;;4.13;3.55;;;;;;;10.52;92.98;96290.25;5246269;56;20131;-79
2021/09/04 03:12:20;;;;;;;3.65;3.35;;;;;;;10.49;92.36;96287.66;5246677;56;20121;-78
2021/09/04 03:17:22;;;;;;;6.68;4.07;;;;;;;10.43;92.37;96283.97;5245083;56;20135;-79
2021/09/04 03:22:24;;;;;;;6.20;4.03;;;;;;;10.42;92.11;96290.72;5244966;56;20140;-78
2021/09/04 03:27:27;;;;;;;4.90;4.20;;;;;;;10.35;92.25;96294.56;5245001;56;20139;-78
2021/09/04 03:32:30;;;;;;;6.88;4.30;;;;;;;10.35;91.85;96288.28;5245813;56;20130;-80
2021/09/04 03:37:32;;;;;;;7.40;4.32;;;;;;;10.34;92.25;96287.50;5247170;56;20117;-80
2021/09/04 03:42:35;;;;;;;5.80;4.55;;;;;;;10.27;91.93;96287.06;5247237;56;20156;-80
2021/09/04 03:47:37;;;;;;;7.07;5.05;;;;;;;10.22;92.34;96276.63;5247193;56;20128;-80
2021/09/04 03:52:39;;;;;;;6.15;4.90;;;;;;;10.35;93.13;96280.00;5247247;56;20134;-80
2021/09/04 03:57:42;;;;;;;6.95;4.53;;;;;;;10.20;92.35;96290.88;5250859;56;20214;-79
2021/09/04 04:02:45;;;;;;;9.05;5.03;;;;;;;10.24;91.97;96288.75;5251803;56;20556;-80
2021/09/04 04:07:48;;;;;;;4.85;4.28;;;;;;;10.09;92.12;96291.31;5247807;56;20337;-81
2021/09/04 04:12:50;;;;;;;6.90;4.55;;;;;;;10.00;92.18;96296.06;5247385;56;20130;-80
2021/09/04 04:17:53;;;;;;;6.88;4.95;;;;;;;10.00;92.53;96288.56;5248265;56;20130;-81
2021/09/04 04:22:55;;;;;;;11.10;5.25;;;;;;;10.10;91.89;96283.81;5248382;56;20634;-80
2021/09/04 04:27:57;;;;;;;6.43;4.95;;;;;;;9.98;92.49;96290.22;5248272;56;20121;-81
2021/09/04 04:33:00;;;;;;;8.02;5.03;;;;;;;9.95;93.04;96288.41;5249406;56;20863;-81
2021/09/04 04:38:03;;;;;;;4.22;3.85;;;;;;;10.02;92.82;96286.09;5248145;56;20653;-81
2021/09/04 04:43:05;;;;;;;5.85;5.07;;;;;;;9.91;92.25;96287.78;5248698;56;20121;-80
2021/09/04 04:48:07;;;;;;;5.68;4.68;;;;;;;9.91;92.53;96287.78;5247882;56;20222;-81
2021/09/04 04:53:11;;;;;;;4.78;4.28;;;;;;;9.93;92.54;96280.56;5248309;56;20143;-81
2021/09/04 04:58:14;;;;;;;5.30;4.47;;;;;;;9.99;92.31;96289.78;5247459;56;20117;-81
2021/09/04 05:03:16;;;;;;;7.88;4.80;;;;;;;10.09;92.49;96291.31;5248987;56;20135;-81
2021/09/04 05:08:19;;;;;;;5.00;4.43;;;;;;;10.18;92.22;96287.81;5248113;56;20558;-81
2021/09/04 05:13:22;;;;;;;6.07;5.05;;;;;;;10.24;92.05;96291.50;5249154;56;20173;-81
2021/09/04 05:18:24;;;;;;;5.80;4.90;;;;;;;10.35;91.93;96291.81;5248225;56;20661;-80
2021/09/04 05:23:26;;;;;;;8.25;4.63;;;;;;;10.46;91.87;96288.56;5248517;56;20135;-80
2021/09/04 05:28:29;;;;;;;6.40;5.35;;;;;;;10.59;91.83;96297.47;5247835;56;20125;-81
2021/09/04 05:33:31;;;;;;;6.20;4.93;;;;;;;10.77;91.50;96294.66;5248662;56;20148;-82
2021/09/04 05:38:35;;;;;;;8.05;4.93;;;;;;;10.99;91.62;96302.75;5248561;56;20117;-83
2021/09/04 05:43:38;;;;;;;7.43;5.63;;;;;;;11.24;91.80;96302.38;5249090;56;20130;-81
2021/09/04 05:48:40;;;;;;;7.15;5.45;;;;;;;11.42;91.55;96297.50;5248745;56;20139;-81
2021/09/04 05:53:42;;;;;;;9.40;5.20;;;;;;;11.62;91.92;96307.28;5248757;56;20125;-82
2021/09/04 05:58:45;;;;;;;5.90;4.55;;;;;;;11.77;91.94;96305.34;5248928;56;20122;-82
2021/09/04 06:03:47;;;;;;;5.57;4.43;;;;;;;12.00;91.78;96296.31;5252797;56;20218;-81
2021/09/04 06:08:50;;;;;;;6.97;5.57;;;;;;;12.21;91.82;96304.28;5252375;56;20187;-81
2021/09/04 06:13:52;;;;;;;6.90;5.38;;;;;;;12.49;92.10;96304.06;5259177;56;20130;-80
2021/09/04 06:18:54;;;;;;;7.75;5.93;;;;;;;12.81;91.74;96303.94;5257525;56;20122;-80
2021/09/04 06:23:57;;;;;;;9.60;6.78;;;;;;;13.00;92.63;96310.06;5246917;56;20134;-80
2021/09/04 06:28:59;;;;;;;10.13;6.45;;;;;;;13.19;91.85;96302.31;5263137;56;20204;-81
2021/09/04 06:34:02;;;;;;;8.90;7.18;;;;;;;13.36;91.63;96309.69;5254171;56;20135;-75
2021/09/04 06:39:04;;;;;;;8.68;6.88;;;;;;;13.68;93.22;96315.44;5243136;56;20708;-75
2021/09/04 06:44:07;;;;;;;9.73;7.47;;;;;;;13.95;91.45;96315.09;5243304;56;20126;-74
2021/09/04 06:49:09;;;;;;;12.50;7.97;;;;;;;14.20;90.43;96317.94;5243071;56;20121;-75
2021/09/04 06:54:11;;;;;;;10.27;7.28;;;;;;;14.44;90.44;96319.75;5242542;56;20146;-75
2021/09/04 06:59:14;;;;;;;9.43;7.20;;;;;;;14.81;88.38;96320.69;5242204;56;20117;-75
2021/09/04 07:04:16;;;;;;;12.20;7.63;;;;;;;15.05;87.38;96318.41;5243293;56;20130;-74
2021/09/04 07:09:18;;;;;;;10.77;7.93;;;;;;;15.30;87.18;96331.53;5242680;56;20131;-74
2021/09/04 07:14:21;;;;;;;12.93;8.27;;;;;;;15.43;85.88;96325.56;5242987;56;20135;-74
2021/09/04 07:19:23;;;;;;;8.07;6.65;;;;;;;15.73;86.49;96343.56;5242651;56;20135;-74
2021/09/04 07:24:25;;;;;;;13.93;8.15;;;;;;;15.88;85.83;96335.81;5242755;56;20130;-75
2021/09/04 07:29:28;;;;;;;12.25;8.65;;;;;;;15.91;85.87;96326.47;5242371;56;20144;-74
2021/09/04 07:34:31;;;;;;;11.00;7.47;;;;;;;16.23;85.07;96335.50;5242900;56;20680;-75
2021/09/04 07:39:33;;;;;;;14.57;8.73;;;;;;;16.59;85.58;96337.47;5242614;56;20692;-75
2021/09/04 07:44:35;;;;;;;12.50;9.43;;;;;;;16.97;84.25;96336.81;5242668;56;20126;-75
2021/09/04 07:49:38;;;;;;;14.73;9.63;;;;;;;17.33;82.13;96342.72;5241363;56;20108;-75
2021/09/04 07:54:40;;;;;;;13.90;8.98;;;;;;;17.65;79.92;96346.81;5237278;56;20671;-75
2021/09/04 07:59:42;;;;;;;12.77;9.00;;;;;;;17.68;80.46;96351.41;5241045;56;20122;-74
2021/09/04 08:04:45;;;;;;;11.35;8.77;;;;;;;17.99;81.75;96356.72;5239595;56;20121;-75
2021/09/04 08:09:47;;;;;;;12.43;9.02;;;;;;;18.30;77.06;96353.59;5235304;56;20108;-75
2021/09/04 08:14:50;;;;;;;12.43;8.43;;;;;;;18.56;77.25;96353.28;5238354;56;20230;-74
2021/09/04 08:19:52;;;;;;;11.88;8.45;;;;;;;18.60;74.12;96357.34;5240801;56;20125;-75
2021/09/04 08:24:55;;;;;;;11.45;8.13;;;;;;;18.96;74.18;96363.78;5240629;56;20121;-75
2021/09/04 08:29:58;;;;;;;13.65;8.30;;;;;;;19.16;75.40;96357.81;5241141;56;20126;-74
2021/09/04 08:35:01;;;;;;;13.50;9.07;;;;;;;19.96;71.73;96361.09;5239481;56;20891;-74
2021/09/04 08:40:04;;;;;;;11.63;7.45;;;;;;;21.11;67.70;96354.72;5243653;56;20126;-75
2021/09/04 08:45:07;;;;;;;14.73;8.13;;;;;;;21.82;67.74;96363.38;5241283;56;20126;-74
2021/09/04 08:50:11;;;;;;;13.40;7.95;;;;;;;22.69;63.35;96376.44;5238278;56;20594;-75
2021/09/04 08:55:13;;;;;;;7.95;7.00;;;;;;;23.22;61.26;96363.06;5240413;56;20121;-75
2021/09/04 09:00:37;;;;;;;10.77;7.57;;;;;;;23.91;57.45;96373.75;5240930;56;20652;-76
2021/09/04 09:05:42;;;;;;;10.07;7.13;;;;;;;23.73;57.93;96374.72;5240782;56;20156;-75
2021/09/04 09:10:45;;;;;;;9.73;6.70;;;;;;;23.14;57.94;96369.88;5240752;56;20201;-75
2021/09/04 09:15:50;;;;;;;8.32;7.18;;;;;;;24.66;53.09;96378.53;5240663;56;20117;-74
2021/09/04 09:21:00;;;;;;;9.43;7.18;;;;;;;24.36;58.49;96375.50;5240456;56;20117;-74
2021/09/04 09:26:10;;;;;;;7.35;6.15;;;;;;;24.56;53.59;96377.53;5240880;56;20108;-74
2021/09/04 09:31:13;;;;;;;9.32;7.28;;;;;;;24.24;54.91;96377.88;5240680;56;20139;-75
2021/09/04 09:36:17;;;;;;;7.90;6.05;;;;;;;25.14;53.01;96376.94;5239589;56;20674;-75
2021/09/04 09:41:19;;;;;;;9.52;5.57;;;;;;;25.53;51.08;96368.09;5241167;56;20135;-75
2021/09/04 09:46:22;;;;;;;6.78;5.90;;;;;;;25.93;50.74;96382.50;5238244;56;20129;-76
2021/09/04 09:51:24;;;;;;;6.80;6.10;;;;;;;25.17;51.31;96375.84;5239740;56;20135;-74
2021/09/04 09:56:26;;;;;;;9.05;6.63;;;;;;;25.52;50.43;96370.16;5230650;56;20169;-75
2021/09/04 10:01:30;;;;;;;5.25;4.75;;;;;;;25.75;52.45;96361.72;5238974;56;20122;-75
2021/09/04 10:06:33;;;;;;;8.70;5.25;;;;;;;25.63;50.39;96357.72;5238702;56;20130;-75
2021/09/04 10:11:38;;;;;;;9.43;5.45;;;;;;;24.99;50.39;96363.47;5229768;56;20599;-74
2021/09/04 10:16:42;;;;;;;6.05;5.45;;;;;;;26.27;51.15;96348.94;5239699;56;20112;-75
2021/09/04 10:21:44;;;;;;;4.97;4.43;;;;;;;26.29;49.79;96352.72;5239154;56;20687;-75
2021/09/04 10:26:58;;;;;;;5.07;4.60;;;;;;;26.00;49.28;96350.59;5239832;56;20113;-75
2021/09/04 10:32:04;;;;;;;4.53;4.10;;;;;;;26.68;45.35;96337.19;5238322;56;20130;-75
2021/09/04 10:37:12;;;;;;;6.53;4.63;;;;;;;26.70;44.73;96343.03;5239494;56;20672;-75
2021/09/04 10:42:37;;;;;;;5.10;4.50;;;;;;;26.08;46.37;96329.47;5239075;56;20148;-75
2021/09/04 10:47:52;;;;;;;6.55;4.15;;;;;;;27.02;44.37;96331.81;5240325;56;20913;-75
2021/09/04 10:52:56;;;;;;;4.47;4.07;;;;;;;26.53;44.85;96330.78;5242954;56;20138;-75
2021/09/04 10:58:09;;;;;;;5.82;5.03;;;;;;;26.18;43.75;96327.63;5240324;56;20113;-75
2021/09/04 11:03:15;;;;;;;5.22;4.70;;;;;;;26.94;45.36;96327.50;5242242;56;20108;-75
2021/09/04 11:08:20;;;;;;;4.28;3.88;;;;;;;27.40;47.25;96330.91;5245740;56;20108;-75
2021/09/04 11:13:22;;;;;;;7.53;4.85;;;;;;;27.36;44.15;96327.72;5254022;56;20789;-75
2021/09/04 11:18:44;;;;;;;5.03;4.05;;;;;;;27.39;44.70;96333.00;5241929;56;20139;-75
2021/09/04 11:23:49;;;;;;;6.75;3.78;;;;;;;27.29;44.70;96319.97;5239658;56;20112;-75
2021/09/04 11:28:56;;;;;;;5.28;3.78;;;;;;;27.58;41.77;96312.66;5243096;56;20135;-75
2021/09/04 11:33:59;;;;;;;3.92;3.53;;;;;;;27.13;41.71;96305.13;5244396;56;20139;-75
2021/09/04 11:39:02;;;;;;;4.75;3.70;;;;;;;27.26;43.10;96312.59;5217156;56;20135;-76
2021/09/04 11:44:05;;;;;;;4.72;3.42;;;;;;;27.28;41.71;96316.38;5235327;56;20144;-74
2021/09/04 11:49:07;;;;;;;3.70;3.40;;;;;;;27.28;42.42;96298.59;5234077;56;20676;-75
2021/09/04 11:54:10;;;;;;;5.82;3.50;;;;;;;26.93;40.98;96298.38;5239503;56;20608;-76
2021/09/04 11:59:13;;;;;;;2.60;2.40;;;;;;;27.51;41.68;96302.09;5240485;56;20131;-75
2021/09/04 12:04:15;;;;;;;4.82;3.58;;;;;;;26.12;41.98;96292.31;5240821;56;20719;-74
2021/09/04 12:09:17;;;;;;;5.57;3.35;;;;;;;27.44;39.98;96297.22;5240611;56;20663;-76
2021/09/04 12:14:20;;;;;;;3.70;3.22;;;;;;;27.33;40.00;96294.78;5240304;56;20129;-75
2021/09/04 12:19:22;;;;;;;5.88;3.45;;;;;;;26.48;41.04;96287.16;5237465;56;20131;-76
2021/09/04 12:24:32;;;;;;;3.10;2.80;;;;;;;26.58;41.11;96290.91;5240466;56;20116;-75
2021/09/04 12:29:35;;;;;;;5.25;3.08;;;;;;;27.36;40.22;96285.13;5238963;56;21014;-76
2021/09/04 12:34:39;;;;;;;3.75;3.40;;;;;;;26.64;40.10;96280.09;5240727;56;20125;-75
2021/09/04 12:39:41;;;;;;;3.72;2.90;;;;;;;26.70;40.84;96283.50;5240098;56;20121;-75
2021/09/04 12:44:46;;;;;;;3.47;2.90;;;;;;;27.36;37.66;96285.94;5240610;56;20118;-75
2021/09/04 12:49:48;;;;;;;3.50;3.17;;;;;;;27.36;41.61;96274.56;5238818;56;20688;-76
2021/09/04 12:54:51;;;;;;;4.00;2.58;;;;;;;26.67;37.77;96270.47;5240766;56;20117;-75
2021/09/04 13:00:20;;;;;;;2.55;2.35;;;;;;;26.99;38.56;96278.31;5240720;56;20589;-76
2021/09/04 13:05:23;;;;;;;3.58;2.72;;;;;;;27.67;37.46;96273.03;5232460;56;20116;-76
2021/09/04 13:10:32;;;;;;;4.13;2.92;;;;;;;27.10;34.74;96266.53;5254194;56;20184;-76
2021/09/04 13:15:36;;;;;;;3.30;2.88;;;;;;;27.52;38.29;96263.88;5252279;56;20599;-77
2021/09/04 13:20:38;;;;;;;4.10;3.08;;;;;;;27.21;39.96;96263.25;5240940;56;20142;-76
2021/09/04 13:25:40;;;;;;;2.72;2.53;;;;;;;27.14;36.87;96255.53;5240532;56;20581;-76
2021/09/04 13:30:43;;;;;;;3.10;2.90;;;;;;;27.37;37.72;96241.25;5239562;56;20139;-75
2021/09/04 13:35:45;;;;;;;3.13;2.60;;;;;;;27.28;37.59;96242.59;5240726;56;20152;-76
2021/09/04 13:40:48;;;;;;;2.97;2.78;;;;;;;27.11;38.20;96239.69;5239432;56;20139;-76
2021/09/04 13:45:50;;;;;;;3.15;2.75;;;;;;;26.96;36.58;96236.91;5230991;56;20121;-76
2021/09/04 13:50:53;;;;;;;3.38;2.80;;;;;;;27.32;40.02;96225.91;5238530;56;20117;-76
2021/09/04 13:55:55;;;;;;;3.47;3.17;;;;;;;27.05;38.83;96229.88;5238747;56;20161;-75
2021/09/04 14:00:57;;;;;;;3.13;2.80;;;;;;;27.14;35.63;96223.59;5238131;56;20134;-75
2021/09/04 14:06:00;;;;;;;3.10;2.80;;;;;;;27.11;34.90;96214.16;5239197;56;20135;-76
2021/09/04 14:11:05;;;;;;;3.47;3.17;;;;;;;27.73;36.67;96213.91;5240071;56;20237;-76
2021/09/04 14:16:08;;;;;;;3.28;2.90;;;;;;;27.00;36.19;96206.09;5240082;56;20130;-75
2021/09/04 14:21:11;;;;;;;3.20;2.90;;;;;;;27.84;36.94;96207.00;5239384;56;20579;-75
2021/09/04 14:26:13;;;;;;;3.03;2.78;;;;;;;27.69;37.66;96202.22;5243045;56;20448;-75
2021/09/04 14:31:15;;;;;;;3.20;2.90;;;;;;;27.50;38.73;96198.41;5240336;56;20121;-76
2021/09/04 14:36:18;;;;;;;3.80;3.17;;;;;;;27.28;37.35;96200.03;5242738;56;20242;-76
2021/09/04 14:41:20;;;;;;;3.38;3.03;;;;;;;26.81;38.75;96200.13;5235787;56;20213;-76
2021/09/04 14:46:23;;;;;;;3.47;3.17;;;;;;;27.10;38.16;96192.00;5237566;56;21444;-76
2021/09/04 14:51:27;;;;;;;3.63;3.33;;;;;;;26.97;40.02;96190.97;5237077;56;20126;-77
2021/09/04 14:56:30;;;;;;;4.55;3.55;;;;;;;26.41;40.57;96193.66;5237264;56;20589;-75
2021/09/04 15:01:32;;;;;;;5.65;3.38;;;;;;;26.33;41.62;96193.66;5231997;56;20113;-75
2021/09/04 15:06:35;;;;;;;4.45;3.10;;;;;;;26.23;41.60;96187.09;5239067;56;20762;-76
2021/09/04 15:11:38;;;;;;;5.80;3.20;;;;;;;26.19;40.32;96181.03;5237562;56;20620;-75
2021/09/04 15:16:40;;;;;;;3.72;3.33;;;;;;;25.69;41.58;96196.97;5233440;56;20134;-75
2021/09/04 15:21:43;;;;;;;4.90;3.53;;;;;;;25.32;41.43;96187.13;5239710;56;20117;-76
2021/09/04 15:26:45;;;;;;;4.53;3.00;;;;;;;24.80;42.66;96184.94;5239435;56;20568;-76
2021/09/04 15:31:48;;;;;;;3.50;3.10;;;;;;;24.18;43.63;96185.97;5239672;56;20594;-75
2021/09/04 15:36:51;;;;;;;5.57;3.50;;;;;;;24.35;45.67;96179.09;5239740;56;20117;-75
2021/09/04 15:41:53;;;;;;;3.50;3.20;;;;;;;24.27;44.91;96176.22;5240857;56;20139;-75
2021/09/04 15:46:55;;;;;;;5.88;3.00;;;;;;;23.85;44.13;96186.13;5250399;46;20666;-76
2021/09/04 15:51:58;;;;;;;7.82;3.22;;;;;;;23.65;44.35;96186.91;5239571;56;20209;-76
2021/09/04 15:57:00;;;;;;;3.63;3.33;;;;;;;23.70;47.01;96181.13;5243553;56;20692;-75
2021/09/04 16:02:03;;;;;;;3.83;3.30;;;;;;;23.47;47.17;96185.84;5244922;56;20113;-74
2021/09/04 16:07:06;;;;;;;3.25;2.95;;;;;;;23.36;49.72;96177.69;5233066;56;20108;-78
2021/09/04 16:12:09;;;;;;;3.47;3.03;;;;;;;23.15;48.04;96188.16;5245374;56;20130;-73
2021/09/04 16:17:15;;;;;;;6.45;3.15;;;;;;;23.03;46.54;96189.72;5235919;56;20120;-76
2021/09/04 16:22:18;;;;;;;2.90;2.70;;;;;;;22.85;50.52;96194.25;5245007;56;20111;-75
2021/09/04 16:27:25;;;;;;;3.42;3.10;;;;;;;22.86;48.42;96189.38;5244824;56;20104;-75
2021/09/04 16:32:27;;;;;;;3.80;2.90;;;;;;;22.75;49.25;96185.50;5225227;56;20696;-73
2021/09/04 16:37:30;;;;;;;3.92;3.30;;;;;;;22.55;49.57;96189.00;5243782;56;20804;-74
2021/09/04 16:42:32;;;;;;;3.38;3.08;;;;;;;22.39;50.70;96186.56;5243375;56;20126;-75
2021/09/04 16:47:35;;;;;;;3.30;3.05;;;;;;;22.22;51.51;96186.91;5245796;56;20139;-75
2021/09/04 16:52:38;;;;;;;3.17;2.88;;;;;;;22.07;52.46;96184.63;5244741;56;20121;-74
2021/09/04 16:57:40;;;;;;;3.53;3.22;;;;;;;21.87;55.37;96185.28;5247111;56;20125;-76
2021/09/04 17:02:43;;;;;;;4.53;3.10;;;;;;;21.63;54.72;96179.09;5248072;56;20741;-76
2021/09/04 17:07:46;;;;;;;5.65;3.20;;;;;;;21.35;56.20;96179.56;5244224;56;20658;-76
2021/09/04 17:12:48;;;;;;;5.13;3.35;;;;;;;21.20;60.69;96177.28;5243184;56;20140;-78
2021/09/04 17:17:51;;;;;;;6.72;3.72;;;;;;;20.79;62.73;96188.13;5244032;56;20125;-75
2021/09/04 17:22:53;;;;;;;3.88;3.13;;;;;;;20.50;65.37;96187.03;5254385;56;20156;-75
2021/09/04 17:27:56;;;;;;;7.68;3.03;;;;;;;20.22;69.22;96181.00;5257294;56;20173;-77
2021/09/04 17:32:58;;;;;;;4.43;3.60;;;;;;;19.87;71.41;96189.59;5248378;56;20126;-76
2021/09/04 17:38:00;;;;;;;4.20;3.40;;;;;;;19.68;72.58;96186.72;5246250;56;20591;-75
2021/09/04 17:43:03;;;;;;;6.07;3.28;;;;;;;19.83;71.05;96203.88;5246398;56;20121;-76
2021/09/04 17:48:05;;;;;;;3.92;3.35;;;;;;;19.62;72.15;96200.06;5245626;56;20112;-75
2021/09/04 17:53:08;;;;;;;4.50;3.08;;;;;;;19.37;70.93;96220.16;5246547;56;20131;-75
2021/09/04 17:58:10;;;;;;;5.25;3.33;;;;;;;19.10;70.96;96214.25;5245107;56;20161;-75
2021/09/04 18:03:13;;;;;;;3.78;3.20;;;;;;;18.72;73.82;96217.34;5244950;56;20129;-74
2021/09/04 18:08:18;;;;;;;5.00;3.00;;;;;;;18.30;75.68;96224.13;5434191;46;20130;-75
2021/09/04 18:13:20;;;;;;;4.30;2.95;;;;;;;18.03;77.13;96231.38;5248117;56;20244;-76
2021/09/04 18:18:22;;;;;;;5.25;3.15;;;;;;;17.76;78.60;96232.22;5246776;56;20688;-75
2021/09/04 18:23:25;;;;;;;3.97;3.60;;;;;;;17.63;79.40;96241.16;5252016;56;20096;-77
2021/09/04 18:28:27;;;;;;;3.80;3.20;;;;;;;17.69;79.67;96258.66;5250847;56;20135;-76
2021/09/04 18:33:30;;;;;;;3.80;3.17;;;;;;;17.45;80.92;96254.84;5252176;56;20130;-76
2021/09/04 18:38:32;;;;;;;4.53;3.53;;;;;;;17.10;82.56;96269.31;5253280;56;20122;-77
2021/09/04 18:43:34;;;;;;;5.93;3.45;;;;;;;17.13;82.22;96271.88;5249195;56;20226;-77
2021/09/04 18:48:37;;;;;;;3.90;3.50;;;;;;;17.18;82.99;96284.31;5250696;56;20233;-77
2021/09/04 18:53:39;;;;;;;3.60;3.30;;;;;;;17.11;82.80;96285.59;5249079;56;20121;-77
2021/09/04 18:58:42;;;;;;;4.28;3.33;;;;;;;16.81;84.30;96287.31;5249965;56;20117;-75
2021/09/04 19:03:44;;;;;;;3.30;3.00;;;;;;;16.60;84.48;96283.19;5249183;56;20139;-77
2021/09/04 19:08:47;;;;;;;6.75;3.47;;;;;;;16.55;85.05;96283.94;5248061;56;20126;-76
2021/09/04 19:13:50;;;;;;;3.45;3.15;;;;;;;16.48;84.92;96279.59;5247971;56;20177;-77
2021/09/04 19:18:52;;;;;;;4.05;3.13;;;;;;;16.32;85.65;96291.44;5248556;56;20222;-77
2021/09/04 19:23:55;;;;;;;3.90;3.50;;;;;;;16.17;85.92;96295.69;5250038;56;20113;-76
2021/09/04 19:28:57;;;;;;;5.57;3.53;;;;;;;15.75;87.13;96294.44;5253627;56;20135;-79
2021/09/04 19:34:04;;;;;;;4.95;3.20;;;;;;;15.61;87.18;96305.72;5252189;56;20135;-77
2021/09/04 19:39:07;;;;;;;3.38;3.08;;;;;;;15.50;88.02;96303.63;5252415;56;20662;-77
2021/09/04 19:44:09;;;;;;;5.03;3.80;;;;;;;15.61;87.62;96300.94;5250583;56;20116;-77
2021/09/04 19:49:11;;;;;;;3.85;3.45;;;;;;;15.46;88.49;96308.66;5255065;56;20126;-77
2021/09/04 19:54:14;;;;;;;7.70;4.15;;;;;;;15.39;88.14;96311.09;5247760;56;20147;-78
2021/09/04 19:59:16;;;;;;;3.90;3.50;;;;;;;15.30;88.38;96322.41;5254851;56;20104;-77
2021/09/04 20:04:19;;;;;;;4.22;3.63;;;;;;;15.41;88.28;96320.50;5256091;56;20108;-77
2021/09/04 20:09:21;;;;;;;4.05;3.50;;;;;;;15.39;87.98;96325.03;5253318;56;20126;-77
2021/09/04 20:14:24;;;;;;;4.00;3.45;;;;;;;15.30;88.29;96319.63;5255530;56;20222;-76
2021/09/04 20:19:26;;;;;;;4.32;3.67;;;;;;;15.14;88.61;96320.25;5258768;56;20126;-75
2021/09/04 20:24:29;;;;;;;6.15;3.72;;;;;;;15.06;88.83;96323.47;5257755;56;20122;-77
2021/09/04 20:29:31;;;;;;;6.50;4.20;;;;;;;14.96;89.51;96315.78;5273571;46;20717;-76
2021/09/04 20:34:35;;;;;;;4.80;3.67;;;;;;;14.81;89.50;96329.03;5233801;56;20121;-76
2021/09/04 20:39:38;;;;;;;4.60;3.95;;;;;;;14.64;90.34;96328.09;5203784;57;20159;-77
2021/09/04 20:44:41;;;;;;;10.32;4.43;;;;;;;14.60;89.92;96335.88;5216060;56;20148;-76
2021/09/04 20:49:44;;;;;;;8.75;3.90;;;;;;;14.54;89.79;96341.38;5225259;56;20241;-76
2021/09/04 20:54:47;;;;;;;4.95;3.67;;;;;;;14.52;89.48;96341.09;5225317;56;20135;-78
2021/09/04 20:59:53;;;;;;;3.97;3.65;;;;;;;14.49;89.70;96344.88;5224193;56;20118;-75
2021/09/04 21:04:55;;;;;;;4.75;3.75;;;;;;;14.47;89.56;96343.81;5225352;56;20126;-77
2021/09/04 21:09:58;;;;;;;6.80;4.00;;;;;;;14.38;89.45;96346.75;5225379;56;20122;-78
2021/09/04 21:15:01;;;;;;;5.15;3.80;;;;;;;14.19;89.65;96352.53;5231499;56;20136;-77
2021/09/04 21:20:04;;;;;;;5.82;4.57;;;;;;;14.15;89.65;96354.00;5233444;56;20326;-75
2021/09/04 21:25:08;;;;;;;5.43;3.97;;;;;;;14.19;89.99;96358.09;5230746;56;20157;-77
2021/09/04 21:30:11;;;;;;;5.15;4.10;;;;;;;14.04;91.04;96354.63;5216803;56;20681;-77
2021/09/04 21:35:13;;;;;;;4.43;4.03;;;;;;;13.97;90.68;96360.59;5226825;56;20126;-76
2021/09/04 21:40:15;;;;;;;9.70;4.57;;;;;;;13.99;90.50;96354.53;5231814;56;20126;-76
2021/09/04 21:45:18;;;;;;;5.32;4.03;;;;;;;13.87;90.89;96359.16;5234580;56;20118;-77
2021/09/04 21:50:21;;;;;;;6.75;5.03;;;;;;;13.74;90.57;96360.72;5234035;56;20105;-77
2021/09/04 21:55:23;;;;;;;6.32;4.57;;;;;;;13.64;91.26;96366.38;5235295;56;20192;-76
2021/09/04 22:00:28;;;;;;;5.03;4.53;;;;;;;13.61;91.29;96363.81;5233189;56;20140;-77
2021/09/04 22:05:31;;;;;;;6.25;4.60;;;;;;;13.37;91.23;96363.16;5225317;56;20749;-77
2021/09/04 22:10:33;;;;;;;5.65;4.75;;;;;;;13.48;91.11;96366.13;5227024;56;20109;-78
2021/09/04 22:15:36;;;;;;;5.50;4.95;;;;;;;13.56;91.22;96373.59;5231035;56;20127;-76
2021/09/04 22:20:39;;;;;;;6.53;4.70;;;;;;;13.63;89.72;96367.66;5226883;56;20171;-75
2021/09/04 22:25:42;;;;;;;7.72;4.85;;;;;;;13.40;90.45;96368.53;5226766;56;20131;-78
2021/09/04 22:30:45;;;;;;;9.30;5.82;;;;;;;13.48;90.51;96369.66;5229086;56;20218;-75
2021/09/04 22:35:47;;;;;;;6.88;4.97;;;;;;;13.34;90.81;96366.91;5227089;56;20697;-78
2021/09/04 22:40:51;;;;;;;12.90;4.82;;;;;;;13.21;90.79;96371.97;5228575;56;20761;-78
2021/09/04 22:45:54;;;;;;;6.20;5.20;;;;;;;13.06;91.05;96365.66;5229210;56;20192;-77
2021/09/04 22:50:57;;;;;;;5.68;5.07;;;;;;;13.05;91.22;96366.88;5226764;56;20074;-77
2021/09/04 22:56:00;;;;;;;7.00;4.32;;;;;;;12.88;91.44;96372.13;5226726;56;20743;-76
2021/09/04 23:01:02;;;;;;;6.95;4.95;;;;;;;12.84;91.25;96368.75;5225056;56;20113;-76
2021/09/04 23:06:05;;;;;;;6.75;5.38;;;;;;;12.73;91.68;96371.34;5223666;56;20113;-77
2021/09/04 23:11:08;;;;;;;7.57;5.28;;;;;;;12.77;91.52;96380.22;5220884;56;20221;-78
2021/09/04 23:16:10;;;;;;;6.97;4.97;;;;;;;12.74;91.50;96367.31;5223566;56;20211;-77
2021/09/04 23:21:16;;;;;;;6.78;4.85;;;;;;;12.71;91.68;96373.81;5225648;56;20742;-77
2021/09/04 23:26:21;;;;;;;6.45;5.68;;;;;;;12.71;91.72;96377.34;5217621;56;20127;-77
2021/09/04 23:31:23;;;;;;;9.18;5.20;;;;;;;12.76;91.50;96390.53;5227546;56;20118;-76
2021/09/04 23:36:26;;;;;;;6.78;4.63;;;;;;;12.50;92.66;96377.66;5227301;56;20246;-77
2021/09/04 23:41:28;;;;;;;8.23;5.38;;;;;;;12.61;92.51;96386.97;5226933;56;20122;-77